Terminal Aerodrome Forecast
Issued by NWS

Home | Current Version | Previous Version | Text Only | Print | Product List | Glossary Off
Versions: 1 2 3 4 5 6 7 8 9 10 11 12 13 14 15 16 17 18 19 20 21 22

000
FTUS43 KBIS 271900 AAA
TAFDIK
TAF AMD
KDIK 271949Z 2720/2818 04018G28KT P6SM SKC
     FM280100 03016KT P6SM BKN250
     FM280600 03015KT P6SM BKN150
     FM281200 03015KT P6SM VCSH BKN060
     FM281600 05016KT 6SM -SHRA OVC030=

USA.gov is the U.S. government's official web portal to all federal, state and local government web resources and services.